sensor_id;sensor_type;location;lat;lon;timestamp;P1;durP1;ratioP1;P2;durP2;ratioP2
1400;SDS011;46518;48.842;8.926;2022-08-05T00:01:30;3.43;;;3.23;;
1400;SDS011;46518;48.842;8.926;2022-08-05T00:04:15;3.40;;;3.10;;
1400;SDS011;46518;48.842;8.926;2022-08-05T00:06:44;4.07;;;3.77;;
1400;SDS011;46518;48.842;8.926;2022-08-05T00:09:17;4.00;;;3.70;;
1400;SDS011;46518;48.842;8.926;2022-08-05T00:11:46;3.33;;;3.13;;
1400;SDS011;46518;48.842;8.926;2022-08-05T00:14:25;3.77;;;3.57;;
1400;SDS011;46518;48.842;8.926;2022-08-05T00:17:00;3.87;;;3.57;;
1400;SDS011;46518;48.842;8.926;2022-08-05T00:19:30;3.80;;;3.50;;
1400;SDS011;46518;48.842;8.926;2022-08-05T00:22:11;4.73;;;3.20;;
1400;SDS011;46518;48.842;8.926;2022-08-05T00:24:43;4.07;;;3.67;;
1400;SDS011;46518;48.842;8.926;2022-08-05T00:27:20;6.20;;;3.00;;
1400;SDS011;46518;48.842;8.926;2022-08-05T00:30:02;4.53;;;3.30;;
1400;SDS011;46518;48.842;8.926;2022-08-05T00:32:36;7.43;;;4.00;;
1400;SDS011;46518;48.842;8.926;2022-08-05T00:35:14;4.37;;;3.40;;
1400;SDS011;46518;48.842;8.926;2022-08-05T00:37:46;3.97;;;3.17;;
1400;SDS011;46518;48.842;8.926;2022-08-05T00:40:25;6.30;;;4.50;;
1400;SDS011;46518;48.842;8.926;2022-08-05T00:43:28;7.00;;;3.60;;
1400;SDS011;46518;48.842;8.926;2022-08-05T00:46:15;5.73;;;4.40;;
1400;SDS011;46518;48.842;8.926;2022-08-05T00:49:06;10.57;;;4.40;;
1400;SDS011;46518;48.842;8.926;2022-08-05T00:51:41;5.97;;;4.93;;
1400;SDS011;46518;48.842;8.926;2022-08-05T00:54:29;4.17;;;3.83;;
1400;SDS011;46518;48.842;8.926;2022-08-05T00:57:02;10.70;;;3.93;;
1400;SDS011;46518;48.842;8.926;2022-08-05T00:59:37;5.33;;;4.30;;
1400;SDS011;46518;48.842;8.926;2022-08-05T01:02:10;4.90;;;4.50;;
1400;SDS011;46518;48.842;8.926;2022-08-05T01:04:42;6.20;;;4.60;;
1400;SDS011;46518;48.842;8.926;2022-08-05T01:07:17;8.43;;;3.90;;
1400;SDS011;46518;48.842;8.926;2022-08-05T01:09:45;6.60;;;4.00;;
1400;SDS011;46518;48.842;8.926;2022-08-05T01:12:21;4.67;;;4.30;;
1400;SDS011;46518;48.842;8.926;2022-08-05T01:15:20;4.63;;;4.23;;
1400;SDS011;46518;48.842;8.926;2022-08-05T01:18:02;7.17;;;4.37;;
1400;SDS011;46518;48.842;8.926;2022-08-05T01:20:39;9.00;;;4.23;;
1400;SDS011;46518;48.842;8.926;2022-08-05T01:23:23;4.53;;;4.23;;
1400;SDS011;46518;48.842;8.926;2022-08-05T01:26:03;9.80;;;4.53;;
1400;SDS011;46518;48.842;8.926;2022-08-05T01:30:02;4.60;;;4.30;;
1400;SDS011;46518;48.842;8.926;2022-08-05T01:32:44;4.40;;;3.97;;
1400;SDS011;46518;48.842;8.926;2022-08-05T01:36:21;5.70;;;4.00;;
1400;SDS011;46518;48.842;8.926;2022-08-05T01:48:36;8.77;;;4.90;;
1400;SDS011;46518;48.842;8.926;2022-08-05T01:52:35;5.70;;;4.07;;
1400;SDS011;46518;48.842;8.926;2022-08-05T01:55:08;5.00;;;4.50;;
1400;SDS011;46518;48.842;8.926;2022-08-05T01:57:41;4.90;;;4.40;;
1400;SDS011;46518;48.842;8.926;2022-08-05T02:00:32;5.57;;;4.53;;
1400;SDS011;46518;48.842;8.926;2022-08-05T02:03:05;10.90;;;5.13;;
1400;SDS011;46518;48.842;8.926;2022-08-05T02:05:59;5.10;;;4.60;;
1400;SDS011;46518;48.842;8.926;2022-08-05T02:08:50;9.10;;;5.07;;
1400;SDS011;46518;48.842;8.926;2022-08-05T02:11:25;5.17;;;4.77;;
1400;SDS011;46518;48.842;8.926;2022-08-05T02:14:01;8.50;;;5.03;;
1400;SDS011;46518;48.842;8.926;2022-08-05T02:16:40;4.90;;;4.50;;
1400;SDS011;46518;48.842;8.926;2022-08-05T02:19:19;5.37;;;4.60;;
1400;SDS011;46518;48.842;8.926;2022-08-05T02:22:03;4.67;;;4.27;;
1400;SDS011;46518;48.842;8.926;2022-08-05T02:24:52;8.33;;;5.40;;
1400;SDS011;46518;48.842;8.926;2022-08-05T02:27:27;6.03;;;4.60;;
1400;SDS011;46518;48.842;8.926;2022-08-05T02:30:17;5.23;;;4.73;;
1400;SDS011;46518;48.842;8.926;2022-08-05T02:32:46;4.60;;;4.20;;
1400;SDS011;46518;48.842;8.926;2022-08-05T02:35:18;4.93;;;4.30;;
1400;SDS011;46518;48.842;8.926;2022-08-05T02:37:59;5.93;;;4.70;;
1400;SDS011;46518;48.842;8.926;2022-08-05T02:40:29;8.47;;;5.10;;
1400;SDS011;46518;48.842;8.926;2022-08-05T02:42:59;5.43;;;4.60;;
1400;SDS011;46518;48.842;8.926;2022-08-05T02:45:32;5.87;;;5.37;;
1400;SDS011;46518;48.842;8.926;2022-08-05T02:48:19;8.13;;;5.00;;
1400;SDS011;46518;48.842;8.926;2022-08-05T02:50:56;8.43;;;5.37;;
1400;SDS011;46518;48.842;8.926;2022-08-05T02:53:28;9.13;;;6.00;;
1400;SDS011;46518;48.842;8.926;2022-08-05T03:06:37;5.90;;;5.40;;
1400;SDS011;46518;48.842;8.926;2022-08-05T03:13:12;8.60;;;5.47;;
1400;SDS011;46518;48.842;8.926;2022-08-05T03:19:41;6.73;;;5.27;;
1400;SDS011;46518;48.842;8.926;2022-08-05T03:22:11;5.80;;;5.13;;
1400;SDS011;46518;48.842;8.926;2022-08-05T03:25:18;7.30;;;5.37;;
1400;SDS011;46518;48.842;8.926;2022-08-05T03:29:14;8.80;;;6.10;;
1400;SDS011;46518;48.842;8.926;2022-08-05T03:53:06;5.97;;;4.90;;
1400;SDS011;46518;48.842;8.926;2022-08-05T03:55:59;8.17;;;5.40;;
1400;SDS011;46518;48.842;8.926;2022-08-05T03:58:43;6.00;;;5.60;;
1400;SDS011;46518;48.842;8.926;2022-08-05T04:01:16;7.63;;;6.30;;
1400;SDS011;46518;48.842;8.926;2022-08-05T04:03:48;6.37;;;5.73;;
1400;SDS011;46518;48.842;8.926;2022-08-05T04:06:36;6.20;;;5.33;;
1400;SDS011;46518;48.842;8.926;2022-08-05T04:12:19;9.47;;;6.30;;
1400;SDS011;46518;48.842;8.926;2022-08-05T04:14:50;6.70;;;6.20;;
1400;SDS011;46518;48.842;8.926;2022-08-05T04:17:23;7.60;;;6.63;;
1400;SDS011;46518;48.842;8.926;2022-08-05T04:20:16;6.30;;;5.80;;
1400;SDS011;46518;48.842;8.926;2022-08-05T04:22:45;7.80;;;5.47;;
1400;SDS011;46518;48.842;8.926;2022-08-05T04:25:15;6.53;;;5.90;;
1400;SDS011;46518;48.842;8.926;2022-08-05T04:27:49;6.97;;;5.67;;
1400;SDS011;46518;48.842;8.926;2022-08-05T04:30:23;6.03;;;5.23;;
1400;SDS011;46518;48.842;8.926;2022-08-05T04:32:52;5.63;;;5.23;;
1400;SDS011;46518;48.842;8.926;2022-08-05T04:35:21;7.17;;;5.67;;
1400;SDS011;46518;48.842;8.926;2022-08-05T04:38:09;8.07;;;5.93;;
1400;SDS011;46518;48.842;8.926;2022-08-05T04:40:42;6.93;;;6.23;;
1400;SDS011;46518;48.842;8.926;2022-08-05T04:43:16;7.90;;;6.87;;
1400;SDS011;46518;48.842;8.926;2022-08-05T04:45:47;7.50;;;6.00;;
1400;SDS011;46518;48.842;8.926;2022-08-05T04:48:21;9.60;;;7.20;;
1400;SDS011;46518;48.842;8.926;2022-08-05T04:50:53;8.97;;;7.27;;
1400;SDS011;46518;48.842;8.926;2022-08-05T04:53:29;8.40;;;7.70;;
1400;SDS011;46518;48.842;8.926;2022-08-05T04:56:02;8.70;;;6.53;;
1400;SDS011;46518;48.842;8.926;2022-08-05T04:58:51;9.20;;;6.80;;
1400;SDS011;46518;48.842;8.926;2022-08-05T05:01:19;10.40;;;7.03;;
1400;SDS011;46518;48.842;8.926;2022-08-05T05:04:07;8.53;;;6.73;;
1400;SDS011;46518;48.842;8.926;2022-08-05T05:06:36;12.93;;;7.70;;
1400;SDS011;46518;48.842;8.926;2022-08-05T05:09:10;12.30;;;7.57;;
1400;SDS011;46518;48.842;8.926;2022-08-05T05:11:45;13.37;;;6.53;;
1400;SDS011;46518;48.842;8.926;2022-08-05T05:14:22;7.47;;;6.77;;
1400;SDS011;46518;48.842;8.926;2022-08-05T05:16:57;10.03;;;8.00;;
1400;SDS011;46518;48.842;8.926;2022-08-05T05:19:25;9.57;;;7.80;;
1400;SDS011;46518;48.842;8.926;2022-08-05T05:22:09;9.30;;;7.83;;
1400;SDS011;46518;48.842;8.926;2022-08-05T05:24:51;10.20;;;7.13;;
1400;SDS011;46518;48.842;8.926;2022-08-05T05:27:27;7.50;;;6.90;;
1400;SDS011;46518;48.842;8.926;2022-08-05T05:30:34;8.33;;;7.53;;
1400;SDS011;46518;48.842;8.926;2022-08-05T05:33:04;10.50;;;8.30;;
1400;SDS011;46518;48.842;8.926;2022-08-05T05:35:43;11.40;;;7.70;;
1400;SDS011;46518;48.842;8.926;2022-08-05T05:38:13;8.10;;;7.40;;
1400;SDS011;46518;48.842;8.926;2022-08-05T05:40:53;9.00;;;8.10;;
1400;SDS011;46518;48.842;8.926;2022-08-05T05:43:24;9.00;;;8.20;;
1400;SDS011;46518;48.842;8.926;2022-08-05T05:46:12;14.87;;;8.70;;
1400;SDS011;46518;48.842;8.926;2022-08-05T05:48:44;18.37;;;8.87;;
1400;SDS011;46518;48.842;8.926;2022-08-05T05:51:21;9.90;;;8.00;;
1400;SDS011;46518;48.842;8.926;2022-08-05T05:53:51;8.60;;;7.70;;
1400;SDS011;46518;48.842;8.926;2022-08-05T05:56:26;7.13;;;6.40;;
1400;SDS011;46518;48.842;8.926;2022-08-05T05:59:01;8.13;;;7.40;;
1400;SDS011;46518;48.842;8.926;2022-08-05T06:01:52;7.17;;;6.57;;
1400;SDS011;46518;48.842;8.926;2022-08-05T06:04:23;7.30;;;6.60;;
1400;SDS011;46518;48.842;8.926;2022-08-05T06:06:52;8.77;;;7.47;;
1400;SDS011;46518;48.842;8.926;2022-08-05T06:09:27;7.40;;;6.80;;
1400;SDS011;46518;48.842;8.926;2022-08-05T06:12:15;7.00;;;6.40;;
1400;SDS011;46518;48.842;8.926;2022-08-05T06:14:46;8.30;;;5.50;;
1400;SDS011;46518;48.842;8.926;2022-08-05T06:17:17;5.67;;;4.90;;
1400;SDS011;46518;48.842;8.926;2022-08-05T06:20:06;6.13;;;5.53;;
1400;SDS011;46518;48.842;8.926;2022-08-05T06:22:47;4.80;;;4.50;;
1400;SDS011;46518;48.842;8.926;2022-08-05T06:25:16;4.23;;;3.83;;
1400;SDS011;46518;48.842;8.926;2022-08-05T06:28:04;4.43;;;3.70;;
1400;SDS011;46518;48.842;8.926;2022-08-05T06:30:47;4.33;;;3.93;;
1400;SDS011;46518;48.842;8.926;2022-08-05T06:33:17;5.30;;;4.50;;
1400;SDS011;46518;48.842;8.926;2022-08-05T06:36:06;4.33;;;3.53;;
1400;SDS011;46518;48.842;8.926;2022-08-05T06:38:35;3.77;;;3.47;;
1400;SDS011;46518;48.842;8.926;2022-08-05T06:41:12;7.37;;;3.90;;
1400;SDS011;46518;48.842;8.926;2022-08-05T06:43:41;4.43;;;3.20;;
1400;SDS011;46518;48.842;8.926;2022-08-05T06:46:27;3.83;;;3.53;;
1400;SDS011;46518;48.842;8.926;2022-08-05T06:48:56;3.37;;;3.10;;
1400;SDS011;46518;48.842;8.926;2022-08-05T06:51:27;3.83;;;3.43;;
1400;SDS011;46518;48.842;8.926;2022-08-05T06:53:57;3.77;;;3.47;;
1400;SDS011;46518;48.842;8.926;2022-08-05T06:56:27;3.23;;;2.93;;
1400;SDS011;46518;48.842;8.926;2022-08-05T06:59:00;4.43;;;3.40;;
1400;SDS011;46518;48.842;8.926;2022-08-05T07:01:35;3.53;;;3.20;;
1400;SDS011;46518;48.842;8.926;2022-08-05T07:04:07;4.23;;;3.40;;
1400;SDS011;46518;48.842;8.926;2022-08-05T07:06:39;3.03;;;2.83;;
1400;SDS011;46518;48.842;8.926;2022-08-05T07:09:08;3.43;;;2.90;;
1400;SDS011;46518;48.842;8.926;2022-08-05T07:11:36;3.03;;;2.70;;
1400;SDS011;46518;48.842;8.926;2022-08-05T07:14:06;3.33;;;3.00;;
1400;SDS011;46518;48.842;8.926;2022-08-05T07:16:59;5.17;;;3.97;;
1400;SDS011;46518;48.842;8.926;2022-08-05T07:19:47;3.93;;;3.47;;
1400;SDS011;46518;48.842;8.926;2022-08-05T07:22:36;4.57;;;2.90;;
1400;SDS011;46518;48.842;8.926;2022-08-05T07:25:08;3.63;;;3.33;;
1400;SDS011;46518;48.842;8.926;2022-08-05T07:27:56;3.27;;;2.97;;
1400;SDS011;46518;48.842;8.926;2022-08-05T07:30:34;4.30;;;3.60;;
1400;SDS011;46518;48.842;8.926;2022-08-05T07:33:07;3.53;;;3.27;;
1400;SDS011;46518;48.842;8.926;2022-08-05T07:35:43;4.57;;;3.23;;
1400;SDS011;46518;48.842;8.926;2022-08-05T07:38:32;3.50;;;3.20;;
1400;SDS011;46518;48.842;8.926;2022-08-05T07:41:11;3.40;;;3.10;;
1400;SDS011;46518;48.842;8.926;2022-08-05T07:44:05;3.43;;;3.13;;
1400;SDS011;46518;48.842;8.926;2022-08-05T07:46:44;3.30;;;3.10;;
1400;SDS011;46518;48.842;8.926;2022-08-05T07:49:16;3.20;;;3.00;;
1400;SDS011;46518;48.842;8.926;2022-08-05T07:51:46;3.70;;;3.40;;
1400;SDS011;46518;48.842;8.926;2022-08-05T07:54:21;3.23;;;2.90;;
1400;SDS011;46518;48.842;8.926;2022-08-05T07:56:59;4.23;;;3.17;;
1400;SDS011;46518;48.842;8.926;2022-08-05T07:59:48;3.80;;;3.50;;
1400;SDS011;46518;48.842;8.926;2022-08-05T08:02:21;3.60;;;3.30;;
1400;SDS011;46518;48.842;8.926;2022-08-05T08:04:57;3.10;;;2.80;;
1400;SDS011;46518;48.842;8.926;2022-08-05T08:07:26;3.60;;;3.20;;
1400;SDS011;46518;48.842;8.926;2022-08-05T08:10:15;2.77;;;2.57;;
1400;SDS011;46518;48.842;8.926;2022-08-05T08:12:46;3.27;;;3.07;;
1400;SDS011;46518;48.842;8.926;2022-08-05T08:15:15;2.97;;;2.77;;
1400;SDS011;46518;48.842;8.926;2022-08-05T08:18:04;3.80;;;3.50;;
1400;SDS011;46518;48.842;8.926;2022-08-05T08:20:41;3.33;;;3.13;;
1400;SDS011;46518;48.842;8.926;2022-08-05T08:23:29;3.17;;;2.87;;
1400;SDS011;46518;48.842;8.926;2022-08-05T08:26:18;3.67;;;3.37;;
1400;SDS011;46518;48.842;8.926;2022-08-05T08:28:56;3.40;;;3.20;;
1400;SDS011;46518;48.842;8.926;2022-08-05T08:31:45;3.43;;;3.23;;
1400;SDS011;46518;48.842;8.926;2022-08-05T08:34:14;4.40;;;2.87;;
1400;SDS011;46518;48.842;8.926;2022-08-05T08:36:45;4.07;;;3.63;;
1400;SDS011;46518;48.842;8.926;2022-08-05T08:39:22;3.40;;;3.00;;
1400;SDS011;46518;48.842;8.926;2022-08-05T08:41:51;8.57;;;3.47;;
1400;SDS011;46518;48.842;8.926;2022-08-05T08:44:28;5.77;;;3.20;;
1400;SDS011;46518;48.842;8.926;2022-08-05T08:47:18;3.13;;;2.87;;
1400;SDS011;46518;48.842;8.926;2022-08-05T08:50:10;4.93;;;3.10;;
1400;SDS011;46518;48.842;8.926;2022-08-05T08:53:02;4.10;;;3.20;;
1400;SDS011;46518;48.842;8.926;2022-08-05T08:55:33;4.43;;;2.60;;
1400;SDS011;46518;48.842;8.926;2022-08-05T08:58:22;3.80;;;3.50;;
1400;SDS011;46518;48.842;8.926;2022-08-05T09:01:04;3.20;;;3.00;;
1400;SDS011;46518;48.842;8.926;2022-08-05T09:03:42;5.87;;;4.20;;
1400;SDS011;46518;48.842;8.926;2022-08-05T09:06:18;3.30;;;3.10;;
1400;SDS011;46518;48.842;8.926;2022-08-05T09:08:57;3.43;;;3.13;;
1400;SDS011;46518;48.842;8.926;2022-08-05T09:11:26;3.30;;;3.00;;
1400;SDS011;46518;48.842;8.926;2022-08-05T09:14:15;3.23;;;3.03;;
1400;SDS011;46518;48.842;8.926;2022-08-05T09:17:05;3.67;;;3.37;;
1400;SDS011;46518;48.842;8.926;2022-08-05T09:19:55;3.47;;;3.17;;
1400;SDS011;46518;48.842;8.926;2022-08-05T09:22:37;3.07;;;2.80;;
1400;SDS011;46518;48.842;8.926;2022-08-05T09:25:49;3.70;;;3.00;;
1400;SDS011;46518;48.842;8.926;2022-08-05T09:28:26;4.03;;;3.27;;
1400;SDS011;46518;48.842;8.926;2022-08-05T09:31:00;3.07;;;2.77;;
1400;SDS011;46518;48.842;8.926;2022-08-05T09:33:51;2.80;;;2.60;;
1400;SDS011;46518;48.842;8.926;2022-08-05T09:36:20;4.20;;;2.60;;
1400;SDS011;46518;48.842;8.926;2022-08-05T09:38:59;3.17;;;2.87;;
1400;SDS011;46518;48.842;8.926;2022-08-05T09:41:56;5.13;;;3.13;;
1400;SDS011;46518;48.842;8.926;2022-08-05T09:44:32;2.83;;;2.63;;
1400;SDS011;46518;48.842;8.926;2022-08-05T09:47:06;2.90;;;2.70;;
1400;SDS011;46518;48.842;8.926;2022-08-05T09:49:42;2.90;;;2.70;;
1400;SDS011;46518;48.842;8.926;2022-08-05T09:52:28;2.87;;;2.70;;
1400;SDS011;46518;48.842;8.926;2022-08-05T09:54:59;3.57;;;3.37;;
1400;SDS011;46518;48.842;8.926;2022-08-05T09:57:51;3.50;;;2.93;;
1400;SDS011;46518;48.842;8.926;2022-08-05T10:00:24;3.60;;;3.40;;
1400;SDS011;46518;48.842;8.926;2022-08-05T10:02:56;3.43;;;3.13;;
1400;SDS011;46518;48.842;8.926;2022-08-05T10:05:28;3.87;;;3.57;;
1400;SDS011;46518;48.842;8.926;2022-08-05T10:07:59;3.60;;;2.53;;
1400;SDS011;46518;48.842;8.926;2022-08-05T10:10:49;3.87;;;3.17;;
1400;SDS011;46518;48.842;8.926;2022-08-05T10:13:28;3.50;;;3.20;;
1400;SDS011;46518;48.842;8.926;2022-08-05T10:16:27;3.27;;;2.97;;
1400;SDS011;46518;48.842;8.926;2022-08-05T10:18:59;4.83;;;3.83;;
1400;SDS011;46518;48.842;8.926;2022-08-05T10:21:35;4.30;;;3.23;;
1400;SDS011;46518;48.842;8.926;2022-08-05T10:24:06;3.37;;;3.10;;
1400;SDS011;46518;48.842;8.926;2022-08-05T10:26:39;3.57;;;3.27;;
1400;SDS011;46518;48.842;8.926;2022-08-05T10:29:20;3.77;;;3.47;;
1400;SDS011;46518;48.842;8.926;2022-08-05T10:32:09;2.93;;;2.73;;
1400;SDS011;46518;48.842;8.926;2022-08-05T10:34:57;3.60;;;3.30;;
1400;SDS011;46518;48.842;8.926;2022-08-05T10:37:28;3.40;;;3.20;;
1400;SDS011;46518;48.842;8.926;2022-08-05T10:40:15;4.17;;;3.77;;
1400;SDS011;46518;48.842;8.926;2022-08-05T10:42:55;3.80;;;3.23;;
1400;SDS011;46518;48.842;8.926;2022-08-05T10:45:31;3.80;;;3.40;;
1400;SDS011;46518;48.842;8.926;2022-08-05T10:51:19;4.13;;;3.47;;
1400;SDS011;46518;48.842;8.926;2022-08-05T10:53:55;3.03;;;2.83;;
1400;SDS011;46518;48.842;8.926;2022-08-05T10:56:28;3.60;;;3.30;;
1400;SDS011;46518;48.842;8.926;2022-08-05T10:59:01;3.90;;;2.80;;
1400;SDS011;46518;48.842;8.926;2022-08-05T11:02:05;3.80;;;3.40;;
1400;SDS011;46518;48.842;8.926;2022-08-05T11:04:43;3.17;;;2.97;;
1400;SDS011;46518;48.842;8.926;2022-08-05T11:07:12;3.17;;;2.97;;
1400;SDS011;46518;48.842;8.926;2022-08-05T11:09:59;2.73;;;2.57;;
1400;SDS011;46518;48.842;8.926;2022-08-05T11:12:42;4.70;;;2.80;;
1400;SDS011;46518;48.842;8.926;2022-08-05T11:15:20;3.40;;;3.10;;
1400;SDS011;46518;48.842;8.926;2022-08-05T11:18:23;3.63;;;3.00;;
1400;SDS011;46518;48.842;8.926;2022-08-05T11:20:58;4.27;;;3.40;;
1400;SDS011;46518;48.842;8.926;2022-08-05T11:23:32;4.30;;;3.90;;
1400;SDS011;46518;48.842;8.926;2022-08-05T11:26:22;3.47;;;3.27;;
1400;SDS011;46518;48.842;8.926;2022-08-05T11:28:57;3.30;;;3.10;;
1400;SDS011;46518;48.842;8.926;2022-08-05T11:31:39;3.07;;;2.77;;
1400;SDS011;46518;48.842;8.926;2022-08-05T11:34:36;3.00;;;2.80;;
1400;SDS011;46518;48.842;8.926;2022-08-05T11:40:56;2.80;;;2.60;;
1400;SDS011;46518;48.842;8.926;2022-08-05T11:43:51;3.47;;;2.97;;
1400;SDS011;46518;48.842;8.926;2022-08-05T11:46:34;2.80;;;2.60;;
1400;SDS011;46518;48.842;8.926;2022-08-05T11:49:24;4.00;;;3.60;;
1400;SDS011;46518;48.842;8.926;2022-08-05T11:51:54;4.87;;;3.33;;
1400;SDS011;46518;48.842;8.926;2022-08-05T11:54:24;5.33;;;3.40;;
1400;SDS011;46518;48.842;8.926;2022-08-05T11:57:00;3.80;;;3.07;;
1400;SDS011;46518;48.842;8.926;2022-08-05T11:59:34;2.90;;;2.70;;
1400;SDS011;46518;48.842;8.926;2022-08-05T12:02:16;3.47;;;3.20;;
1400;SDS011;46518;48.842;8.926;2022-08-05T12:04:58;3.70;;;3.40;;
1400;SDS011;46518;48.842;8.926;2022-08-05T12:08:07;3.30;;;3.10;;
1400;SDS011;46518;48.842;8.926;2022-08-05T12:10:38;3.20;;;3.00;;
1400;SDS011;46518;48.842;8.926;2022-08-05T12:13:15;3.70;;;3.37;;
1400;SDS011;46518;48.842;8.926;2022-08-05T12:16:07;4.00;;;3.63;;
1400;SDS011;46518;48.842;8.926;2022-08-05T12:18:41;4.87;;;3.60;;
1400;SDS011;46518;48.842;8.926;2022-08-05T12:21:19;3.10;;;2.90;;
1400;SDS011;46518;48.842;8.926;2022-08-05T12:23:56;5.53;;;3.30;;
1400;SDS011;46518;48.842;8.926;2022-08-05T12:26:31;4.00;;;3.70;;
1400;SDS011;46518;48.842;8.926;2022-08-05T12:29:02;3.50;;;3.30;;
1400;SDS011;46518;48.842;8.926;2022-08-05T12:31:37;3.93;;;3.63;;
1400;SDS011;46518;48.842;8.926;2022-08-05T12:34:20;3.60;;;2.80;;
1400;SDS011;46518;48.842;8.926;2022-08-05T12:36:52;3.70;;;3.40;;
1400;SDS011;46518;48.842;8.926;2022-08-05T12:39:23;3.70;;;3.50;;
1400;SDS011;46518;48.842;8.926;2022-08-05T12:42:06;4.07;;;3.30;;
1400;SDS011;46518;48.842;8.926;2022-08-05T12:44:40;3.10;;;2.90;;
1400;SDS011;46518;48.842;8.926;2022-08-05T12:47:10;3.27;;;3.07;;
1400;SDS011;46518;48.842;8.926;2022-08-05T12:49:43;3.13;;;2.93;;
1400;SDS011;46518;48.842;8.926;2022-08-05T12:52:31;4.57;;;3.50;;
1400;SDS011;46518;48.842;8.926;2022-08-05T12:57:52;2.90;;;2.70;;
1400;SDS011;46518;48.842;8.926;2022-08-05T13:00:42;3.10;;;2.90;;
1400;SDS011;46518;48.842;8.926;2022-08-05T13:03:33;2.77;;;2.67;;
1400;SDS011;46518;48.842;8.926;2022-08-05T13:06:15;3.97;;;3.20;;
1400;SDS011;46518;48.842;8.926;2022-08-05T13:08:45;3.30;;;3.10;;
1400;SDS011;46518;48.842;8.926;2022-08-05T13:11:20;4.13;;;3.47;;
1400;SDS011;46518;48.842;8.926;2022-08-05T13:14:18;3.77;;;3.37;;
1400;SDS011;46518;48.842;8.926;2022-08-05T13:17:04;3.27;;;3.00;;
1400;SDS011;46518;48.842;8.926;2022-08-05T13:19:36;7.00;;;3.40;;
1400;SDS011;46518;48.842;8.926;2022-08-05T13:22:18;6.53;;;3.50;;
1400;SDS011;46518;48.842;8.926;2022-08-05T13:24:55;3.50;;;2.93;;
1400;SDS011;46518;48.842;8.926;2022-08-05T13:27:33;4.50;;;3.23;;
1400;SDS011;46518;48.842;8.926;2022-08-05T13:30:05;3.27;;;3.07;;
1400;SDS011;46518;48.842;8.926;2022-08-05T13:32:55;3.90;;;3.60;;
1400;SDS011;46518;48.842;8.926;2022-08-05T13:35:27;3.63;;;3.33;;
1400;SDS011;46518;48.842;8.926;2022-08-05T13:38:17;3.80;;;3.50;;
1400;SDS011;46518;48.842;8.926;2022-08-05T13:41:04;5.27;;;3.63;;
1400;SDS011;46518;48.842;8.926;2022-08-05T13:43:39;3.40;;;3.10;;
1400;SDS011;46518;48.842;8.926;2022-08-05T13:46:20;3.40;;;3.13;;
1400;SDS011;46518;48.842;8.926;2022-08-05T13:49:09;5.53;;;3.67;;
1400;SDS011;46518;48.842;8.926;2022-08-05T13:51:38;3.53;;;3.23;;
1400;SDS011;46518;48.842;8.926;2022-08-05T13:54:12;3.33;;;3.13;;
1400;SDS011;46518;48.842;8.926;2022-08-05T13:56:42;3.90;;;3.60;;
1400;SDS011;46518;48.842;8.926;2022-08-05T13:59:19;3.60;;;3.13;;
1400;SDS011;46518;48.842;8.926;2022-08-05T14:01:51;3.33;;;3.13;;
1400;SDS011;46518;48.842;8.926;2022-08-05T14:04:24;3.57;;;3.37;;
1400;SDS011;46518;48.842;8.926;2022-08-05T14:07:19;4.03;;;3.73;;
1400;SDS011;46518;48.842;8.926;2022-08-05T14:10:10;3.90;;;3.60;;
1400;SDS011;46518;48.842;8.926;2022-08-05T14:12:44;4.50;;;3.77;;
1400;SDS011;46518;48.842;8.926;2022-08-05T14:15:15;3.83;;;3.53;;
1400;SDS011;46518;48.842;8.926;2022-08-05T14:18:04;4.00;;;3.40;;
1400;SDS011;46518;48.842;8.926;2022-08-05T14:20:44;5.67;;;4.20;;
1400;SDS011;46518;48.842;8.926;2022-08-05T14:23:14;3.90;;;3.50;;
1400;SDS011;46518;48.842;8.926;2022-08-05T14:25:51;4.07;;;3.67;;
1400;SDS011;46518;48.842;8.926;2022-08-05T14:28:24;6.53;;;4.30;;
1400;SDS011;46518;48.842;8.926;2022-08-05T14:30:55;3.80;;;3.50;;
1400;SDS011;46518;48.842;8.926;2022-08-05T14:33:23;3.67;;;3.37;;
1400;SDS011;46518;48.842;8.926;2022-08-05T14:35:52;4.70;;;3.73;;
1400;SDS011;46518;48.842;8.926;2022-08-05T14:38:20;4.43;;;4.13;;
1400;SDS011;46518;48.842;8.926;2022-08-05T14:40:59;3.97;;;3.60;;
1400;SDS011;46518;48.842;8.926;2022-08-05T14:43:33;4.07;;;3.77;;
1400;SDS011;46518;48.842;8.926;2022-08-05T14:46:24;4.10;;;3.70;;
1400;SDS011;46518;48.842;8.926;2022-08-05T14:48:56;4.57;;;4.20;;
1400;SDS011;46518;48.842;8.926;2022-08-05T14:51:32;5.33;;;4.83;;
1400;SDS011;46518;48.842;8.926;2022-08-05T14:54:01;5.50;;;5.00;;
1400;SDS011;46518;48.842;8.926;2022-08-05T14:56:49;5.07;;;4.67;;
1400;SDS011;46518;48.842;8.926;2022-08-05T14:59:20;5.60;;;5.10;;
1400;SDS011;46518;48.842;8.926;2022-08-05T15:01:50;6.10;;;5.60;;
1400;SDS011;46518;48.842;8.926;2022-08-05T15:04:19;5.13;;;4.70;;
1400;SDS011;46518;48.842;8.926;2022-08-05T15:06:48;5.63;;;5.23;;
1400;SDS011;46518;48.842;8.926;2022-08-05T15:09:17;5.20;;;4.80;;
1400;SDS011;46518;48.842;8.926;2022-08-05T15:12:06;5.03;;;4.53;;
1400;SDS011;46518;48.842;8.926;2022-08-05T15:14:43;4.50;;;4.20;;
1400;SDS011;46518;48.842;8.926;2022-08-05T15:17:17;5.40;;;5.00;;
1400;SDS011;46518;48.842;8.926;2022-08-05T15:20:06;5.00;;;4.20;;
1400;SDS011;46518;48.842;8.926;2022-08-05T15:22:45;6.07;;;5.50;;
1400;SDS011;46518;48.842;8.926;2022-08-05T15:25:20;5.33;;;4.93;;
1400;SDS011;46518;48.842;8.926;2022-08-05T15:28:09;5.63;;;5.20;;
1400;SDS011;46518;48.842;8.926;2022-08-05T15:30:40;5.57;;;5.17;;
1400;SDS011;46518;48.842;8.926;2022-08-05T15:33:12;6.13;;;5.63;;
1400;SDS011;46518;48.842;8.926;2022-08-05T15:36:02;5.83;;;5.23;;
1400;SDS011;46518;48.842;8.926;2022-08-05T15:38:42;6.03;;;4.53;;
1400;SDS011;46518;48.842;8.926;2022-08-05T15:41:12;6.03;;;5.63;;
1400;SDS011;46518;48.842;8.926;2022-08-05T15:43:50;5.33;;;4.93;;
1400;SDS011;46518;48.842;8.926;2022-08-05T15:46:22;6.03;;;5.43;;
1400;SDS011;46518;48.842;8.926;2022-08-05T15:48:58;5.73;;;5.00;;
1400;SDS011;46518;48.842;8.926;2022-08-05T15:51:37;6.70;;;5.40;;
1400;SDS011;46518;48.842;8.926;2022-08-05T15:54:28;4.77;;;4.33;;
1400;SDS011;46518;48.842;8.926;2022-08-05T15:57:03;5.07;;;4.33;;
1400;SDS011;46518;48.842;8.926;2022-08-05T15:59:34;8.37;;;5.53;;
1400;SDS011;46518;48.842;8.926;2022-08-05T16:02:05;5.53;;;5.03;;
1400;SDS011;46518;48.842;8.926;2022-08-05T16:04:47;5.50;;;5.00;;
1400;SDS011;46518;48.842;8.926;2022-08-05T16:07:20;5.70;;;5.20;;
1400;SDS011;46518;48.842;8.926;2022-08-05T16:09:56;4.87;;;4.47;;
1400;SDS011;46518;48.842;8.926;2022-08-05T16:12:29;5.03;;;4.67;;
1400;SDS011;46518;48.842;8.926;2022-08-05T16:15:00;8.20;;;5.30;;
1400;SDS011;46518;48.842;8.926;2022-08-05T16:17:28;5.70;;;4.63;;
1400;SDS011;46518;48.842;8.926;2022-08-05T16:19:59;4.83;;;4.53;;
1400;SDS011;46518;48.842;8.926;2022-08-05T16:22:37;6.03;;;5.43;;
1400;SDS011;46518;48.842;8.926;2022-08-05T16:25:07;7.43;;;5.40;;
1400;SDS011;46518;48.842;8.926;2022-08-05T16:27:36;4.70;;;4.30;;
1400;SDS011;46518;48.842;8.926;2022-08-05T16:30:26;4.53;;;4.03;;
1400;SDS011;46518;48.842;8.926;2022-08-05T16:32:58;4.63;;;4.23;;
1400;SDS011;46518;48.842;8.926;2022-08-05T16:35:31;4.80;;;4.40;;
1400;SDS011;46518;48.842;8.926;2022-08-05T16:38:08;4.47;;;4.17;;
1400;SDS011;46518;48.842;8.926;2022-08-05T16:40:51;5.97;;;4.77;;
1400;SDS011;46518;48.842;8.926;2022-08-05T16:43:29;5.23;;;4.83;;
1400;SDS011;46518;48.842;8.926;2022-08-05T16:46:00;5.83;;;5.23;;
1400;SDS011;46518;48.842;8.926;2022-08-05T16:48:50;4.43;;;4.13;;
1400;SDS011;46518;48.842;8.926;2022-08-05T16:51:22;5.97;;;3.83;;
1400;SDS011;46518;48.842;8.926;2022-08-05T16:54:08;5.20;;;4.53;;
1400;SDS011;46518;48.842;8.926;2022-08-05T16:56:46;4.97;;;4.57;;
1400;SDS011;46518;48.842;8.926;2022-08-05T16:59:33;4.90;;;4.50;;
1400;SDS011;46518;48.842;8.926;2022-08-05T17:02:23;5.00;;;4.60;;
1400;SDS011;46518;48.842;8.926;2022-08-05T17:04:53;5.13;;;4.53;;
1400;SDS011;46518;48.842;8.926;2022-08-05T17:07:24;4.47;;;4.17;;
1400;SDS011;46518;48.842;8.926;2022-08-05T17:10:09;5.17;;;4.70;;
1400;SDS011;46518;48.842;8.926;2022-08-05T17:12:38;6.07;;;4.33;;
1400;SDS011;46518;48.842;8.926;2022-08-05T17:15:18;4.90;;;4.53;;